Time;durP1;ratioP1;P1;durP2;ratioP2;P2;SDS_P1;SDS_P2;PMS_P1;PMS_P2;Temp;Humidity;BMP_temperature;BMP_pressure;BME280_temperature;BME280_humidity;BME280_pressure;Samples;Min_cycle;Max_cycle;Signal;HPM_P1;HPM_P2
2024/03/07 00:00:17;;;;;;;13.85;11.00;;;11.60;99.90;;;;;;4974586;28;20038;-50
2024/03/07 00:02:50;;;;;;;14.63;10.75;;;11.60;99.90;;;;;;4929102;28;20557;-49
2024/03/07 00:05:17;;;;;;;16.48;12.25;;;11.50;99.90;;;;;;4974320;28;20042;-50
2024/03/07 00:07:43;;;;;;;15.45;11.80;;;11.60;99.90;;;;;;4974572;28;20030;-49
2024/03/07 00:10:09;;;;;;;14.15;10.88;;;11.50;99.90;;;;;;4974509;28;20030;-49
2024/03/07 00:12:36;;;;;;;14.30;11.30;;;11.40;99.90;;;;;;4974342;28;20110;-49
2024/03/07 00:15:03;;;;;;;15.63;10.95;;;11.50;99.90;;;;;;4974631;28;20490;-49
2024/03/07 00:17:29;;;;;;;14.02;10.02;;;11.40;99.90;;;;;;4909016;28;20046;-49
2024/03/07 00:19:56;;;;;;;12.32;8.52;;;;;;;;;;4974139;28;20368;-49
2024/03/07 00:22:22;;;;;;;11.82;8.38;;;;;;;;;;4974200;28;20046;-49
2024/03/07 00:24:48;;;;;;;12.35;9.48;;;;;;;;;;4974172;28;20039;-49
2024/03/07 00:27:15;;;;;;;12.30;9.48;;;;;;;;;;4976248;28;20035;-49
2024/03/07 00:29:41;;;;;;;12.98;9.35;;;;;;;;;;4977838;28;20430;-49
2024/03/07 00:32:07;;;;;;;11.43;8.77;;;11.40;99.90;;;;;;4928121;28;20050;-49
2024/03/07 00:34:33;;;;;;;9.30;7.10;;;;;;;;;;4960047;28;20042;-49
2024/03/07 00:37:00;;;;;;;10.73;8.65;;;;;;;;;;4977829;28;20101;-49
2024/03/07 00:39:26;;;;;;;10.32;8.35;;;11.00;99.90;;;;;;4977794;28;20475;-49
2024/03/07 00:41:51;;;;;;;8.50;6.25;;;11.30;99.90;;;;;;4977672;28;20031;-49
2024/03/07 00:44:17;;;;;;;11.93;8.77;;;11.20;99.90;;;;;;4977723;28;20070;-50
2024/03/07 00:46:43;;;;;;;11.63;8.95;;;11.20;99.90;;;;;;4943962;28;20041;-50
2024/03/07 00:49:09;;;;;;;12.25;7.95;;;11.20;99.90;;;;;;4943651;28;20039;-49
2024/03/07 00:51:35;;;;;;;12.80;8.80;;;11.20;99.90;;;;;;4977707;28;20541;-49
2024/03/07 00:54:01;;;;;;;11.02;8.18;;;11.20;99.90;;;;;;4959660;28;20039;-49
2024/03/07 00:56:28;;;;;;;10.85;8.10;;;11.20;99.90;;;;;;4977364;28;20522;-49
2024/03/07 00:58:54;;;;;;;12.07;9.02;;;;;;;;;;4977411;28;20037;-49
2024/03/07 01:01:20;;;;;;;10.88;7.90;;;;;;;;;;4977428;28;20034;-49
2024/03/07 01:03:46;;;;;;;10.68;8.40;;;;;;;;;;4977100;28;20053;-49
2024/03/07 01:06:13;;;;;;;10.38;7.55;;;;;;;;;;4977293;28;20037;-49
2024/03/07 01:08:39;;;;;;;10.82;7.90;;;;;;;;;;4977230;28;20031;-49
2024/03/07 01:11:09;;;;;;;10.27;7.43;;;;;;;;;;4977374;28;20019;-49
2024/03/07 01:13:42;;;;;;;8.63;6.88;;;;;;;;;;4976223;28;20039;-49
2024/03/07 01:16:08;;;;;;;11.73;7.45;;;;;;;;;;4977200;28;20059;-49
2024/03/07 01:18:35;;;;;;;11.10;7.90;;;;;;;;;;4927349;28;20086;-49
2024/03/07 01:21:04;;;;;;;10.85;7.88;;;;;;;;;;4976872;28;20054;-49
2024/03/07 01:23:31;;;;;;;10.93;8.23;;;;;;;;;;4976883;28;20046;-50
2024/03/07 01:25:58;;;;;;;10.93;7.88;;;;;;;;;;4976825;28;20041;-49
2024/03/07 01:28:24;;;;;;;9.63;6.15;;;;;;;;;;4927292;28;20077;-49
2024/03/07 01:30:52;;;;;;;11.10;8.35;;;;;;;;;;4927108;28;20066;-50
2024/03/07 01:33:19;;;;;;;9.88;8.10;;;;;;;;;;4976921;28;20022;-49
2024/03/07 01:35:45;;;;;;;11.60;8.65;;;;;;;;;;4976741;28;20030;-49
2024/03/07 01:38:13;;;;;;;12.35;8.95;;;;;;;;;;4975706;28;20113;-49
2024/03/07 01:40:40;;;;;;;8.05;6.32;;;;;;;;;;4976657;28;20030;-49
2024/03/07 01:43:07;;;;;;;10.93;8.27;;;;;;;;;;4976690;28;20065;-49
2024/03/07 01:45:33;;;;;;;11.75;8.80;;;;;;;;;;4976612;28;20038;-50
2024/03/07 01:47:59;;;;;;;11.05;8.27;;;;;;;;;;4976882;28;20037;-49
2024/03/07 01:50:26;;;;;;;10.90;8.65;;;;;;;;;;4976921;28;20039;-49
2024/03/07 01:52:55;;;;;;;10.10;8.07;;;;;;;;;;4976676;28;20508;-49
2024/03/07 01:55:22;;;;;;;10.73;7.35;;;;;;;;;;4976673;28;20048;-49
2024/03/07 01:57:49;;;;;;;10.00;8.13;;;;;;;;;;4976349;28;20062;-49
2024/03/07 02:00:16;;;;;;;10.77;8.30;;;;;;;;;;4976688;28;20058;-49
2024/03/07 02:02:43;;;;;;;12.45;8.57;;;;;;;;;;4976341;28;20541;-49
2024/03/07 02:05:10;;;;;;;12.13;8.80;;;;;;;;;;4976387;28;20086;-50
2024/03/07 02:07:36;;;;;;;10.90;7.93;;;;;;;;;;4976187;28;20089;-49
2024/03/07 02:10:05;;;;;;;11.55;8.95;;;10.90;99.90;;;;;;4926605;28;20038;-50
2024/03/07 02:12:32;;;;;;;12.00;8.45;;;10.90;99.90;;;;;;4942513;28;20364;-49
2024/03/07 02:14:57;;;;;;;13.70;9.48;;;10.90;99.90;;;;;;4976018;28;20027;-49
2024/03/07 02:17:27;;;;;;;12.95;9.07;;;10.90;99.90;;;;;;4976056;28;20038;-49
2024/03/07 02:19:53;;;;;;;13.48;8.85;;;10.90;99.90;;;;;;4975637;28;20050;-49
2024/03/07 02:22:19;;;;;;;13.90;8.68;;;10.90;99.90;;;;;;4942045;28;20428;-49
2024/03/07 02:24:46;;;;;;;12.27;9.00;;;10.90;99.90;;;;;;4925852;28;20426;-49
2024/03/07 02:27:14;;;;;;;12.70;8.77;;;11.00;99.90;;;;;;4975745;28;20490;-49
2024/03/07 02:29:41;;;;;;;13.98;9.75;;;11.00;99.90;;;;;;4975706;28;20085;-50
2024/03/07 02:32:07;;;;;;;10.57;8.40;;;11.00;99.90;;;;;;4975586;28;20023;-49
2024/03/07 02:34:34;;;;;;;11.48;8.73;;;11.00;99.90;;;;;;4975657;28;20109;-49
2024/03/07 02:36:59;;;;;;;13.00;9.00;;;11.00;99.90;;;;;;4957896;28;20081;-49
2024/03/07 02:39:25;;;;;;;12.73;8.95;;;11.00;99.90;;;;;;4975586;28;20447;-49
2024/03/07 02:41:51;;;;;;;11.88;8.88;;;11.00;99.90;;;;;;4957774;28;20031;-49
2024/03/07 02:44:17;;;;;;;12.35;8.20;;;11.00;99.90;;;;;;4957455;28;20065;-50
2024/03/07 02:46:43;;;;;;;13.30;8.75;;;10.90;99.90;;;;;;4957707;28;20047;-50
2024/03/07 02:49:09;;;;;;;10.85;8.40;;;10.80;99.90;;;;;;4975151;28;20131;-50
2024/03/07 02:51:35;;;;;;;11.93;9.23;;;10.80;99.90;;;;;;4975353;28;20026;-49
2024/03/07 02:54:02;;;;;;;11.68;8.82;;;10.90;99.90;;;;;;4975358;28;20057;-50
2024/03/07 02:56:28;;;;;;;11.55;9.30;;;10.90;99.90;;;;;;4975324;28;20129;-49
2024/03/07 02:58:54;;;;;;;12.05;9.45;;;10.90;99.90;;;;;;4975178;28;20478;-50
2024/03/07 03:01:20;;;;;;;12.10;8.35;;;10.90;99.90;;;;;;4975276;28;20037;-50
2024/03/07 03:03:45;;;;;;;11.13;9.35;;;11.00;99.90;;;;;;4975073;28;20486;-49
2024/03/07 03:06:11;;;;;;;13.07;9.82;;;11.10;99.90;;;;;;4975086;28;20463;-49
2024/03/07 03:08:37;;;;;;;11.50;8.90;;;11.10;99.90;;;;;;4975126;28;20023;-50
2024/03/07 03:11:03;;;;;;;11.60;9.70;;;11.20;99.90;;;;;;4974939;28;20034;-49
2024/03/07 03:13:30;;;;;;;13.20;9.15;;;;;;;;;;4975141;28;20494;-49
2024/03/07 03:15:56;;;;;;;11.25;9.70;;;;;;;;;;4925407;28;20125;-49
2024/03/07 03:18:25;;;;;;;13.68;9.20;;;;;;;;;;4974887;28;20117;-49
2024/03/07 03:20:52;;;;;;;11.82;9.57;;;;;;;;;;4974704;28;20769;-49
2024/03/07 03:23:18;;;;;;;14.55;10.70;;;;;;;;;;4941396;28;20058;-49
2024/03/07 03:25:45;;;;;;;14.02;9.85;;;;;;;;;;4974935;28;20537;-49
2024/03/07 03:28:11;;;;;;;12.25;8.95;;;11.30;99.90;;;;;;4974698;28;20098;-49
2024/03/07 03:30:41;;;;;;;13.55;10.27;;;11.10;99.90;;;;;;4974705;28;20055;-50
2024/03/07 03:33:07;;;;;;;15.00;10.10;;;11.00;99.90;;;;;;4974549;28;20038;-49
2024/03/07 03:35:34;;;;;;;14.50;10.60;;;11.00;99.90;;;;;;4974743;28;20027;-50
2024/03/07 03:38:00;;;;;;;12.80;9.45;;;11.00;99.90;;;;;;4974853;28;20153;-49
2024/03/07 03:40:26;;;;;;;11.85;8.88;;;11.00;99.90;;;;;;4974727;28;20027;-50
2024/03/07 03:42:52;;;;;;;11.15;9.30;;;11.00;99.90;;;;;;4974605;28;20039;-49
2024/03/07 03:45:18;;;;;;;13.20;9.68;;;11.10;99.90;;;;;;4956823;28;20373;-50
2024/03/07 03:47:44;;;;;;;12.48;10.45;;;;;;;;;;4940899;28;20039;-49
2024/03/07 03:50:11;;;;;;;14.45;10.27;;;;;;;;;;4974584;28;20386;-49
2024/03/07 03:52:37;;;;;;;16.02;10.85;;;11.10;99.90;;;;;;4974533;28;20037;-49
2024/03/07 03:55:05;;;;;;;13.23;10.80;;;11.10;99.90;;;;;;4940704;28;20066;-49
2024/03/07 03:57:31;;;;;;;13.52;10.52;;;11.10;99.90;;;;;;4941110;28;20472;-49
2024/03/07 03:59:57;;;;;;;14.18;9.90;;;11.10;99.90;;;;;;4974567;28;20053;-50
2024/03/07 04:02:23;;;;;;;12.52;9.68;;;11.00;99.90;;;;;;4976626;28;20033;-50
2024/03/07 04:04:51;;;;;;;13.50;9.98;;;11.00;99.90;;;;;;4978524;28;20114;-49
2024/03/07 04:07:17;;;;;;;13.30;10.52;;;11.00;99.90;;;;;;4978504;28;20027;-50
2024/03/07 04:09:44;;;;;;;12.75;9.50;;;11.00;99.90;;;;;;4978343;28;20030;-50
2024/03/07 04:12:10;;;;;;;13.20;9.63;;;11.10;99.90;;;;;;4978222;28;20502;-49
2024/03/07 04:14:43;;;;;;;14.43;9.52;;;11.10;99.90;;;;;;4978189;28;20077;-50
2024/03/07 04:17:12;;;;;;;12.18;9.73;;;11.10;99.90;;;;;;4978112;28;20038;-49
2024/03/07 04:19:41;;;;;;;12.52;9.25;;;11.20;99.90;;;;;;4977847;28;20055;-50
2024/03/07 04:22:08;;;;;;;15.18;11.13;;;;;;;;;;4978068;28;20114;-50
2024/03/07 04:24:34;;;;;;;11.98;10.07;;;;;;;;;;4977816;28;20613;-49
2024/03/07 04:27:03;;;;;;;12.52;9.95;;;;;;;;;;4978165;28;20076;-49
2024/03/07 04:29:33;;;;;;;13.98;10.18;;;11.40;99.90;;;;;;4977876;28;20030;-49
2024/03/07 04:32:03;;;;;;;12.57;9.70;;;11.40;99.90;;;;;;4977977;28;20030;-49
2024/03/07 04:34:30;;;;;;;14.73;10.27;;;11.30;99.90;;;;;;4977809;28;20041;-49
2024/03/07 04:36:58;;;;;;;13.88;11.70;;;11.40;99.90;;;;;;4977816;28;20034;-50
2024/03/07 04:39:30;;;;;;;14.00;11.23;;;11.30;99.90;;;;;;4960346;28;20499;-50
2024/03/07 04:41:56;;;;;;;;;;;11.30;99.90;;;;;;4978221;28;20031;-49
2024/03/07 04:44:22;;;;;;;12.65;10.25;;;11.20;99.90;;;;;;4977728;28;19925;-49
2024/03/07 04:46:49;;;;;;;14.00;9.60;;;11.20;99.90;;;;;;4977474;28;20117;-49
2024/03/07 04:49:15;;;;;;;15.02;10.75;;;11.30;99.90;;;;;;4977548;28;20490;-50
2024/03/07 04:51:41;;;;;;;13.40;10.30;;;11.20;99.90;;;;;;4927763;28;20509;-49
2024/03/07 04:54:07;;;;;;;14.07;10.90;;;11.20;99.90;;;;;;4977558;28;20018;-49
2024/03/07 04:56:33;;;;;;;13.55;10.75;;;11.20;99.90;;;;;;4977395;28;20054;-49
2024/03/07 04:58:58;;;;;;;13.45;10.80;;;11.20;99.90;;;;;;4977408;28;20022;-49
2024/03/07 05:01:24;;;;;;;14.05;10.80;;;11.10;99.90;;;;;;4959461;28;20038;-49
2024/03/07 05:03:52;;;;;;;13.40;10.77;;;11.10;99.90;;;;;;4990858;28;20394;-49
2024/03/07 05:06:18;;;;;;;13.98;10.70;;;11.10;99.90;;;;;;4996796;28;20052;-49
2024/03/07 05:08:44;;;;;;;13.57;10.98;;;11.00;99.90;;;;;;4996669;28;20121;-50
2024/03/07 05:11:10;;;;;;;13.60;11.00;;;11.00;99.90;;;;;;4996602;28;20072;-50
2024/03/07 05:13:37;;;;;;;16.83;12.15;;;11.00;99.90;;;;;;4996421;28;20110;-49
2024/03/07 05:16:03;;;;;;;16.92;12.18;;;11.00;99.90;;;;;;4996647;28;20039;-49
2024/03/07 05:18:28;;;;;;;14.30;12.07;;;11.00;99.90;;;;;;4962583;28;20073;-49
2024/03/07 05:20:54;;;;;;;15.13;12.23;;;11.10;99.90;;;;;;4962246;28;20097;-49
2024/03/07 05:23:20;;;;;;;15.80;12.38;;;11.10;99.90;;;;;;4962186;28;20395;-49
2024/03/07 05:25:46;;;;;;;16.52;12.68;;;11.10;99.90;;;;;;4996518;28;20031;-49
2024/03/07 05:28:12;;;;;;;16.48;13.90;;;11.00;99.90;;;;;;4996428;28;20026;-49
2024/03/07 05:30:38;;;;;;;15.75;12.77;;;11.00;99.90;;;;;;4996232;28;20036;-49
2024/03/07 05:33:04;;;;;;;18.15;13.18;;;11.00;99.90;;;;;;4996210;28;20030;-50
2024/03/07 05:35:30;;;;;;;18.75;14.63;;;11.00;99.90;;;;;;4962287;28;20035;-49
2024/03/07 05:37:56;;;;;;;18.90;13.52;;;11.00;99.90;;;;;;4996408;28;20036;-50
2024/03/07 05:40:22;;;;;;;18.70;13.40;;;11.00;99.90;;;;;;4996063;28;20034;-49
2024/03/07 05:42:49;;;;;;;17.65;13.50;;;11.00;99.90;;;;;;4995886;28;20037;-49
2024/03/07 05:45:17;;;;;;;17.27;13.95;;;10.90;99.90;;;;;;4996161;28;20088;-49
2024/03/07 05:47:43;;;;;;;18.27;14.75;;;10.70;99.90;;;;;;4995999;28;20085;-49
2024/03/07 05:50:09;;;;;;;19.27;14.70;;;10.90;99.90;;;;;;4996052;28;20422;-49
2024/03/07 05:52:35;;;;;;;20.70;15.70;;;10.90;99.90;;;;;;4961949;28;20038;-49
2024/03/07 05:55:01;;;;;;;18.67;15.43;;;11.00;99.90;;;;;;4995928;28;20456;-49
2024/03/07 05:57:26;;;;;;;19.10;15.10;;;11.00;99.90;;;;;;4995890;28;20030;-50
2024/03/07 05:59:52;;;;;;;22.95;16.15;;;11.00;99.90;;;;;;4995767;28;20030;-49
2024/03/07 06:02:19;;;;;;;20.95;15.98;;;11.00;99.90;;;;;;4995638;28;20029;-49
2024/03/07 06:04:45;;;;;;;24.70;17.05;;;11.00;99.90;;;;;;4995526;28;20478;-49
2024/03/07 06:07:12;;;;;;;22.38;16.75;;;;;;;;;;4995604;28;20492;-49
2024/03/07 06:09:38;;;;;;;25.00;18.30;;;;;;;;;;4995545;28;20034;-49
2024/03/07 06:12:08;;;;;;;26.05;18.15;;;;;;;;;;4995374;28;20030;-49
2024/03/07 06:14:34;;;;;;;24.30;18.48;;;;;;;;;;4994376;28;20038;-50
2024/03/07 06:17:00;;;;;;;21.10;14.88;;;;;;;;;;4974536;28;20022;-49
2024/03/07 06:19:27;;;;;;;24.40;18.42;;;;;;;;;;4970446;28;20458;-49
2024/03/07 06:21:54;;;;;;;25.90;20.58;;;;;;;;;;4961509;28;20046;-49
2024/03/07 06:24:22;;;;;;;32.72;21.90;;;;;;;;;;4994659;28;20096;-49
2024/03/07 06:26:59;;;;;;;26.67;19.75;;;;;;;;;;4994326;28;20069;-49
2024/03/07 06:29:27;;;;;;;28.95;20.73;;;;;;;;;;4986944;28;20507;-49
2024/03/07 06:31:54;;;;;;;29.10;20.45;;;;;;;;;;4995064;28;20026;-49
2024/03/07 06:34:20;;;;;;;27.30;20.92;;;;;;;;;;4995079;28;20038;-49
2024/03/07 06:36:46;;;;;;;24.55;18.45;;;;;;;;;;4994799;28;20449;-49
2024/03/07 06:39:13;;;;;;;25.65;19.27;;;;;;;;;;4995008;28;20065;-49
2024/03/07 06:41:39;;;;;;;23.85;18.35;;;;;;;;;;4961179;28;20503;-49
2024/03/07 06:44:05;;;;;;;22.73;18.65;;;;;;;;;;4994715;28;20121;-49
2024/03/07 06:46:34;;;;;;;25.15;18.77;;;;;;;;;;4994830;28;20054;-49
2024/03/07 06:49:00;;;;;;;21.55;16.67;;;;;;;;;;4962001;28;20113;-49
2024/03/07 06:51:26;;;;;;;19.30;14.43;;;;;;;;;;4994828;28;20113;-49
2024/03/07 06:53:53;;;;;;;20.40;17.00;;;;;;;;;;4960962;28;20050;-49
2024/03/07 06:56:19;;;;;;;23.13;17.45;;;;;;;;;;4960764;28;20538;-49
2024/03/07 06:58:48;;;;;;;23.52;17.95;;;;;;;;;;4994549;28;20072;-49
2024/03/07 07:01:15;;;;;;;23.30;16.10;;;;;;;;;;4994622;28;20092;-49
2024/03/07 07:03:43;;;;;;;22.45;17.00;;;;;;;;;;4994532;28;20069;-49
2024/03/07 07:06:10;;;;;;;23.08;18.00;;;;;;;;;;4994426;28;20494;-49
2024/03/07 07:08:36;;;;;;;29.42;21.13;;;;;;;;;;4994389;28;20026;-49
2024/03/07 07:11:03;;;;;;;29.58;21.75;;;;;;;;;;4994449;28;20065;-49
2024/03/07 07:13:30;;;;;;;34.90;23.90;;;;;;;;;;4994359;28;20050;-49
2024/03/07 07:15:56;;;;;;;35.03;24.08;;;;;;;;;;4994337;28;20109;-49
2024/03/07 07:18:23;;;;;;;30.50;21.13;;;;;;;;;;4994343;28;20089;-49
2024/03/07 07:20:52;;;;;;;32.75;24.80;;;;;;;;;;4978969;28;20069;-49
2024/03/07 07:23:18;;;;;;;31.63;21.88;;;;;;;;;;4974701;28;20031;-49
2024/03/07 07:25:46;;;;;;;32.30;21.27;;;;;;;;;;4974736;28;20086;-49
2024/03/07 07:28:12;;;;;;;31.50;22.25;;;;;;;;;;4974638;28;20031;-49
2024/03/07 07:30:38;;;;;;;31.75;22.52;;;;;;;;;;4974642;28;20479;-49
2024/03/07 07:33:04;;;;;;;34.72;24.10;;;;;;;;;;4974786;28;20023;-49
2024/03/07 07:35:31;;;;;;;29.85;20.55;;;;;;;;;;4940809;28;20113;-49
2024/03/07 07:37:57;;;;;;;32.75;22.15;;;;;;;;;;4974304;28;20034;-49
2024/03/07 07:40:26;;;;;;;29.58;21.35;;;;;;;;;;4974651;28;20215;-49
2024/03/07 07:42:53;;;;;;;27.08;19.10;;;;;;;;;;4974528;28;20039;-49
2024/03/07 07:45:19;;;;;;;22.52;16.50;;;;;;;;;;4974652;28;20082;-49
2024/03/07 07:48:05;;;;;;;26.10;18.00;;;;;;;;;;4934104;29;20036;-49
2024/03/07 07:50:34;;;;;;;23.83;15.77;;;10.10;99.90;;;;;;4902626;29;20044;-49
2024/03/07 07:53:00;;;;;;;25.75;16.83;;;;;;;;;;4934136;29;20047;-49
2024/03/07 07:55:27;;;;;;;23.67;15.35;;;;;;;;;;4902544;29;20076;-49
2024/03/07 07:57:55;;;;;;;23.30;16.25;;;;;;;;;;4934168;29;20195;-49
2024/03/07 08:00:22;;;;;;;23.77;16.90;;;;;;;;;;4934322;29;20051;-49
2024/03/07 08:03:09;;;;;;;22.20;15.27;;;9.80;99.90;;;;;;4933978;29;20501;-49
2024/03/07 08:05:36;;;;;;;19.60;14.02;;;10.00;99.90;;;;;;4934049;29;20122;-49
2024/03/07 08:08:07;;;;;;;21.63;13.00;;;9.80;99.90;;;;;;4915733;29;20047;-49
2024/03/07 08:10:37;;;;;;;24.03;15.73;;;9.80;99.90;;;;;;4918205;29;20040;-49
2024/03/07 08:13:05;;;;;;;19.98;13.60;;;9.90;99.90;;;;;;4934031;29;20031;-49
2024/03/07 08:15:31;;;;;;;23.88;14.93;;;9.90;99.90;;;;;;4934012;29;20148;-49
2024/03/07 08:17:59;;;;;;;20.50;14.13;;;10.00;99.90;;;;;;4935216;28;20163;-49
2024/03/07 08:20:26;;;;;;;16.20;11.68;;;10.00;99.90;;;;;;4974251;28;20063;-50
2024/03/07 08:22:53;;;;;;;17.88;11.75;;;9.80;99.90;;;;;;4974066;28;20395;-49
2024/03/07 08:25:24;;;;;;;18.20;13.27;;;9.90;99.90;;;;;;4956481;28;20510;-49
2024/03/07 08:27:51;;;;;;;17.88;12.45;;;10.00;99.90;;;;;;4974285;28;20027;-49
2024/03/07 08:30:17;;;;;;;10.75;8.10;;;9.90;99.90;;;;;;4974262;28;20534;-50
2024/03/07 08:32:44;;;;;;;13.45;10.25;;;9.80;99.90;;;;;;4972020;28;20118;-49
2024/03/07 08:35:11;;;;;;;13.23;10.20;;;9.90;99.90;;;;;;4974006;28;20475;-49
2024/03/07 08:37:41;;;;;;;14.30;9.23;;;9.80;99.90;;;;;;4974209;28;20388;-49
2024/03/07 08:40:10;;;;;;;14.13;9.82;;;9.80;99.90;;;;;;4973831;28;20039;-49
2024/03/07 08:42:41;;;;;;;11.00;8.38;;;9.80;99.90;;;;;;4956644;28;20102;-49
2024/03/07 08:45:10;;;;;;;14.88;10.50;;;9.80;99.90;;;;;;4974154;28;20093;-49
2024/03/07 08:47:37;;;;;;;11.75;9.15;;;9.70;99.90;;;;;;4974844;28;20486;-49
2024/03/07 08:50:08;;;;;;;13.32;10.23;;;9.80;99.90;;;;;;4977475;28;20041;-49
2024/03/07 08:52:38;;;;;;;14.85;11.13;;;9.90;99.90;;;;;;4929439;28;20042;-49
2024/03/07 08:55:04;;;;;;;16.20;12.02;;;9.90;99.90;;;;;;4977403;28;20432;-49
2024/03/07 08:57:30;;;;;;;13.85;10.25;;;9.80;99.90;;;;;;4959657;28;20391;-49
2024/03/07 08:59:56;;;;;;;12.23;9.20;;;9.80;99.90;;;;;;4977341;28;20038;-49
2024/03/07 09:02:22;;;;;;;13.57;10.70;;;;;;;;;;4977402;28;20414;-48
2024/03/07 09:04:48;;;;;;;15.43;9.93;;;9.80;99.90;;;;;;4977356;28;20042;-48
2024/03/07 09:07:14;;;;;;;15.05;11.50;;;9.80;99.90;;;;;;4977370;28;20027;-48
2024/03/07 09:09:45;;;;;;;11.57;8.25;;;;;;;;;;4959617;28;20045;-49
2024/03/07 09:12:11;;;;;;;10.65;7.40;;;;;;;;;;4977184;28;20537;-48
2024/03/07 09:14:37;;;;;;;14.65;10.98;;;;;;;;;;4975496;28;20108;-48
2024/03/07 09:17:07;;;;;;;18.00;13.60;;;;;;;;;;4976974;28;20387;-48
2024/03/07 09:19:33;;;;;;;18.70;14.52;;;;;;;;;;4986884;28;20486;-48
2024/03/07 09:22:00;;;;;;;16.10;12.30;;;;;;;;;;4981907;28;20037;-48
2024/03/07 09:24:26;;;;;;;13.93;10.98;;;;;;;;;;5016017;28;20034;-48
2024/03/07 09:26:56;;;;;;;14.60;10.55;;;;;;;;;;4981636;28;20062;-48
2024/03/07 09:29:22;;;;;;;11.27;7.45;;;;;;;;;;5015994;28;20045;-48
2024/03/07 09:31:51;;;;;;;12.23;9.02;;;;;;;;;;5015797;28;20124;-48
2024/03/07 09:34:18;;;;;;;10.38;7.00;;;;;;;;;;5015877;28;20026;-48
2024/03/07 09:36:45;;;;;;;9.10;7.60;;;;;;;;;;5015794;28;20038;-48
2024/03/07 09:39:12;;;;;;;11.20;8.23;;;;;;;;;;5015807;28;20109;-48
2024/03/07 09:41:41;;;;;;;9.52;7.63;;;;;;;;;;5015619;28;20030;-48
2024/03/07 09:44:16;;;;;;;7.57;5.63;;;;;;;;;;4981428;28;20046;-48
2024/03/07 09:46:43;;;;;;;8.30;6.70;;;;;;;;;;5015729;28;20030;-48
2024/03/07 09:49:10;;;;;;;9.63;7.82;;;;;;;;;;5015755;28;20080;-48
2024/03/07 09:51:37;;;;;;;8.43;5.50;;;9.50;99.90;;;;;;5015544;28;20065;-48
2024/03/07 09:54:03;;;;;;;15.20;9.70;;;9.30;99.90;;;;;;5015374;28;20034;-48
2024/03/07 09:56:40;;;;;;;28.70;18.73;;;9.40;99.90;;;;;;5015368;28;20030;-48
2024/03/07 09:59:09;;;;;;;15.85;10.35;;;;;;;;;;5014449;28;20105;-48
2024/03/07 10:01:37;;;;;;;18.77;12.13;;;9.30;99.90;;;;;;5015449;28;20093;-48
2024/03/07 10:04:11;;;;;;;15.73;10.80;;;9.30;99.90;;;;;;5015190;28;20397;-48
2024/03/07 10:06:46;;;;;;;11.57;7.03;;;;;;;;;;5015103;28;20389;-48
2024/03/07 10:09:13;;;;;;;24.90;14.77;;;;;;;;;;5015107;28;20029;-48
2024/03/07 10:11:43;;;;;;;10.38;6.97;;;;;;;;;;5015303;28;20025;-48
2024/03/07 10:14:12;;;;;;;11.95;9.13;;;;;;;;;;5015238;28;20042;-48
2024/03/07 10:16:38;;;;;;;11.10;7.35;;;;;;;;;;5015159;28;20034;-48
2024/03/07 10:19:09;;;;;;;12.63;10.52;;;;;;;;;;5014571;28;20042;-48
2024/03/07 10:21:36;;;;;;;15.32;10.27;;;;;;;;;;5015010;28;20041;-48
2024/03/07 10:24:11;;;;;;;12.60;9.50;;;;;;;;;;5014720;28;20052;-48
2024/03/07 10:26:40;;;;;;;14.32;10.88;;;;;;;;;;5014774;28;20029;-48
2024/03/07 10:29:07;;;;;;;13.90;9.43;;;;;;;;;;5014649;28;20478;-48
2024/03/07 10:31:34;;;;;;;13.68;10.32;;;;;;;;;;5014711;28;20520;-48
2024/03/07 10:34:01;;;;;;;13.02;9.93;;;9.30;99.90;;;;;;5014736;28;20030;-48
2024/03/07 10:36:31;;;;;;;15.80;11.43;;;9.40;99.90;;;;;;4997003;28;20034;-48
2024/03/07 10:39:11;;;;;;;13.05;9.80;;;9.40;99.90;;;;;;4980199;28;20129;-48
2024/03/07 10:41:46;;;;;;;14.02;10.80;;;9.40;99.90;;;;;;5014741;28;20041;-48
2024/03/07 10:44:25;;;;;;;17.33;12.32;;;9.40;99.90;;;;;;5014471;28;20050;-48
2024/03/07 10:47:03;;;;;;;14.85;11.27;;;9.40;99.90;;;;;;5014754;28;20034;-48
2024/03/07 10:49:36;;;;;;;16.00;11.77;;;9.40;99.90;;;;;;5014556;28;20117;-48
2024/03/07 10:52:25;;;;;;;31.65;19.48;;;9.50;99.90;;;;;;5014502;28;20029;-48
2024/03/07 10:55:02;;;;;;;31.35;17.67;;;9.50;99.90;;;;;;5014649;28;20363;-48
2024/03/07 10:57:36;;;;;;;18.30;12.85;;;9.40;99.90;;;;;;5014509;28;20026;-48
2024/03/07 11:00:24;;;;;;;13.93;10.77;;;9.50;99.90;;;;;;5014188;28;20112;-48
2024/03/07 11:02:55;;;;;;;25.02;14.05;;;9.50;99.90;;;;;;4958824;28;20401;-48
2024/03/07 11:05:24;;;;;;;15.77;12.05;;;9.30;99.90;;;;;;5014220;28;20033;-48
2024/03/07 11:07:51;;;;;;;16.05;11.10;;;9.40;99.90;;;;;;4981069;28;20042;-48
2024/03/07 11:10:19;;;;;;;15.88;12.63;;;9.30;99.90;;;;;;5014026;28;20036;-48
2024/03/07 11:12:46;;;;;;;15.20;11.02;;;9.50;99.90;;;;;;5013974;28;20382;-48
2024/03/07 11:15:19;;;;;;;14.85;10.90;;;9.50;99.90;;;;;;5014016;28;20477;-48
2024/03/07 11:17:47;;;;;;;12.25;9.02;;;9.50;99.90;;;;;;5014115;28;20034;-48
2024/03/07 11:20:26;;;;;;;15.20;10.95;;;9.60;99.90;;;;;;4979397;28;20054;-48
2024/03/07 11:22:55;;;;;;;10.65;8.95;;;9.50;99.90;;;;;;5009580;28;20030;-48
2024/03/07 11:25:22;;;;;;;12.77;9.93;;;9.50;99.90;;;;;;4994776;28;20045;-48
2024/03/07 11:28:09;;;;;;;10.98;8.20;;;9.40;99.90;;;;;;4994284;28;20049;-48
2024/03/07 11:30:35;;;;;;;12.85;9.35;;;9.40;99.90;;;;;;4960512;28;20042;-48
2024/03/07 11:33:03;;;;;;;14.98;11.63;;;9.40;99.90;;;;;;4994501;28;20499;-48
2024/03/07 11:35:35;;;;;;;12.25;9.52;;;9.40;99.90;;;;;;4960603;28;20038;-48
2024/03/07 11:38:04;;;;;;;12.20;10.90;;;9.40;99.90;;;;;;4994310;28;20030;-48
2024/03/07 11:40:30;;;;;;;17.05;12.27;;;9.50;99.90;;;;;;4994221;28;20101;-48
2024/03/07 11:42:59;;;;;;;14.13;8.98;;;9.50;99.90;;;;;;4960000;28;20030;-48
2024/03/07 11:45:27;;;;;;;21.75;14.07;;;9.50;99.90;;;;;;4990536;28;20390;-48
2024/03/07 11:47:59;;;;;;;13.23;10.15;;;9.50;99.90;;;;;;4994062;28;20038;-48
2024/03/07 11:50:26;;;;;;;16.95;12.20;;;9.50;99.90;;;;;;4994068;28;20065;-48
2024/03/07 11:52:56;;;;;;;14.43;10.85;;;9.50;99.90;;;;;;4994120;28;20539;-48
2024/03/07 11:55:24;;;;;;;19.05;13.63;;;9.40;99.90;;;;;;4993855;28;20382;-48
2024/03/07 11:57:50;;;;;;;22.05;14.30;;;9.40;99.90;;;;;;4994008;28;20027;-48
2024/03/07 12:00:18;;;;;;;14.93;10.98;;;9.40;99.90;;;;;;4993833;28;20050;-48
2024/03/07 12:02:44;;;;;;;25.08;15.52;;;9.40;99.90;;;;;;4994066;28;20077;-48
2024/03/07 12:05:10;;;;;;;24.48;15.00;;;9.40;99.90;;;;;;4993611;28;20030;-48
2024/03/07 12:07:36;;;;;;;18.45;12.25;;;9.50;99.90;;;;;;4994093;28;20462;-48
2024/03/07 12:10:03;;;;;;;13.07;10.50;;;9.50;99.90;;;;;;4993902;28;20034;-48
2024/03/07 12:12:29;;;;;;;21.65;14.50;;;9.40;99.90;;;;;;4993716;28;20030;-48
2024/03/07 12:14:56;;;;;;;16.55;12.60;;;9.40;99.90;;;;;;4993986;28;20046;-48
2024/03/07 12:17:22;;;;;;;16.40;10.95;;;9.40;99.90;;;;;;4993683;28;20497;-48
2024/03/07 12:19:52;;;;;;;14.90;11.98;;;9.40;99.90;;;;;;4986847;28;20102;-48
2024/03/07 12:22:23;;;;;;;16.00;11.98;;;9.50;99.90;;;;;;4974677;28;20037;-48
2024/03/07 12:25:03;;;;;;;16.10;11.45;;;;;;;;;;4978115;28;20030;-48
2024/03/07 12:27:29;;;;;;;16.02;12.18;;;9.40;99.90;;;;;;4978032;28;20050;-48
2024/03/07 12:29:55;;;;;;;28.17;19.52;;;9.50;99.90;;;;;;4978266;28;20041;-48
2024/03/07 12:32:21;;;;;;;20.23;12.95;;;9.50;99.90;;;;;;4977187;28;20462;-49
2024/03/07 12:34:47;;;;;;;20.50;12.98;;;9.40;99.90;;;;;;4977919;28;20097;-48
2024/03/07 12:37:16;;;;;;;23.20;14.77;;;9.40;99.90;;;;;;4976602;28;20494;-48
2024/03/07 12:39:46;;;;;;;20.30;14.10;;;9.50;99.90;;;;;;4977773;28;20037;-48
2024/03/07 12:42:15;;;;;;;27.05;15.43;;;9.50;99.90;;;;;;4976348;28;20114;-48
2024/03/07 12:44:47;;;;;;;18.20;12.65;;;9.40;99.90;;;;;;4977604;28;20483;-48
2024/03/07 12:47:14;;;;;;;19.98;13.85;;;9.30;99.90;;;;;;4977753;28;20541;-48
2024/03/07 12:49:46;;;;;;;15.25;11.57;;;9.40;99.90;;;;;;4977720;28;20111;-48
2024/03/07 12:52:15;;;;;;;24.83;13.60;;;9.40;99.90;;;;;;4977578;28;20035;-48
2024/03/07 12:54:42;;;;;;;15.55;10.50;;;9.40;99.90;;;;;;4956283;29;20031;-48
2024/03/07 12:57:08;;;;;;;19.20;14.02;;;9.40;99.90;;;;;;4956431;29;20543;-48
2024/03/07 12:59:39;;;;;;;11.85;8.85;;;9.40;99.90;;;;;;4956121;29;20039;-48
2024/03/07 13:02:09;;;;;;;24.70;17.53;;;9.30;99.90;;;;;;4956105;29;20436;-48
2024/03/07 13:04:38;;;;;;;17.73;12.30;;;9.40;99.90;;;;;;4955989;29;20717;-48
2024/03/07 13:07:06;;;;;;;12.50;10.73;;;9.40;99.90;;;;;;4924183;29;20051;-48
2024/03/07 13:09:33;;;;;;;18.02;14.55;;;9.30;99.90;;;;;;4956095;29;20420;-48
2024/03/07 13:12:04;;;;;;;13.00;10.68;;;9.30;99.90;;;;;;4955976;29;20063;-48
2024/03/07 13:14:32;;;;;;;13.85;11.50;;;9.30;99.90;;;;;;4955920;29;20514;-48
2024/03/07 13:17:06;;;;;;;14.73;11.75;;;9.40;99.90;;;;;;4955811;29;20039;-48